Terminal Aerodrome Forecast
Issued by NWS Bismarck, ND

Home | Current Version | Previous Version | Graphics & Text | Print | Product List | Glossary On
Versions: 1 2 3 4 5 6 7 8 9 10 11 12 13 14 15 16 17 18 19 20
580
FTUS43 KBIS 192334
TAFISN
TAF
KISN 192334Z 2000/2024 32013KT P6SM SCT150
     FM200200 01006KT P6SM BKN150
     FM200900 VRB03KT P6SM BKN060
     FM201700 29006KT P6SM SCT200
     FM202000 32008KT P6SM SCT200=

USA.gov is the U.S. government's official web portal to all federal, state and local government web resources and services.